createdAt,value
2019-01-14T00:00:26.812Z,2.10
2019-01-14T00:02:53.991Z,2.73
2019-01-14T00:05:21.564Z,2.13
2019-01-14T00:07:48.734Z,1.77
2019-01-14T00:10:15.925Z,3.00
2019-01-14T00:12:43.114Z,3.40
2019-01-14T00:15:10.369Z,2.93
2019-01-14T00:17:37.557Z,3.07
2019-01-14T00:20:06.380Z,2.70
2019-01-14T00:22:33.570Z,2.77
2019-01-14T00:25:00.771Z,3.63
2019-01-14T00:27:27.999Z,2.77
2019-01-14T00:29:55.195Z,3.73
2019-01-14T00:32:22.375Z,3.60
2019-01-14T00:34:49.567Z,3.20
2019-01-14T00:37:16.747Z,3.03
2019-01-14T00:39:43.941Z,2.23
2019-01-14T00:42:11.119Z,3.13
2019-01-14T00:44:38.321Z,3.23
2019-01-14T00:47:05.483Z,2.87
2019-01-14T00:49:32.679Z,2.90
2019-01-14T00:51:59.846Z,2.47
2019-01-14T00:54:27.023Z,2.80
2019-01-14T00:56:54.230Z,3.60
2019-01-14T00:59:21.394Z,2.20
2019-01-14T01:01:48.571Z,2.60
2019-01-14T01:04:15.773Z,3.37
2019-01-14T01:06:43.034Z,2.93
2019-01-14T01:09:10.843Z,3.67
2019-01-14T01:11:38.076Z,3.57
2019-01-14T01:14:05.274Z,2.83
2019-01-14T01:16:32.469Z,3.57
2019-01-14T01:18:59.652Z,3.93
2019-01-14T01:21:26.840Z,3.30
2019-01-14T01:23:54.026Z,3.07
2019-01-14T01:26:21.218Z,3.30
2019-01-14T01:28:48.407Z,4.00
2019-01-14T01:31:15.603Z,3.23
2019-01-14T01:33:42.808Z,2.83
2019-01-14T01:36:09.981Z,3.27
2019-01-14T01:38:37.154Z,2.90
2019-01-14T01:41:04.353Z,2.90
2019-01-14T01:43:31.523Z,3.17
2019-01-14T01:45:58.721Z,3.53
2019-01-14T01:48:25.909Z,3.90
2019-01-14T01:50:53.080Z,3.47
2019-01-14T01:53:20.271Z,4.17
2019-01-14T01:55:47.460Z,3.07
2019-01-14T01:58:14.641Z,3.63
2019-01-14T02:00:41.836Z,4.03
2019-01-14T02:03:09.041Z,5.27
2019-01-14T02:05:36.286Z,3.47
2019-01-14T02:08:03.464Z,3.43
2019-01-14T02:10:30.657Z,4.00
2019-01-14T02:12:57.847Z,3.40
2019-01-14T02:15:25.018Z,3.10
2019-01-14T02:17:52.773Z,3.73
2019-01-14T02:20:19.976Z,5.07
2019-01-14T02:22:47.247Z,4.30
2019-01-14T02:25:15.053Z,3.20
2019-01-14T02:27:42.239Z,4.53
2019-01-14T02:30:11.056Z,3.50
2019-01-14T02:32:38.352Z,3.47
2019-01-14T02:35:07.293Z,3.63
2019-01-14T02:37:34.474Z,3.50
2019-01-14T02:40:01.676Z,4.80
2019-01-14T02:42:28.854Z,4.83
2019-01-14T02:44:56.053Z,3.90
2019-01-14T02:47:23.227Z,3.37
2019-01-14T02:49:51.221Z,3.60
2019-01-14T02:52:18.476Z,2.50
2019-01-14T02:54:45.636Z,2.97
2019-01-14T02:57:12.827Z,3.73
2019-01-14T02:59:40.006Z,2.63
2019-01-14T03:02:07.182Z,2.90
2019-01-14T03:04:34.370Z,2.90
2019-01-14T03:07:01.534Z,3.30
2019-01-14T03:09:28.779Z,3.80
2019-01-14T03:11:55.974Z,3.30
2019-01-14T03:14:23.144Z,5.27
2019-01-14T03:16:50.367Z,3.13
2019-01-14T03:19:17.594Z,3.17
2019-01-14T03:21:44.763Z,3.53
2019-01-14T03:24:11.947Z,3.23
2019-01-14T03:26:39.126Z,2.70
2019-01-14T03:29:06.300Z,3.10
2019-01-14T03:31:33.487Z,3.77
2019-01-14T03:34:00.671Z,3.87
2019-01-14T03:36:27.842Z,2.90
2019-01-14T03:38:55.042Z,2.70
2019-01-14T03:41:22.220Z,3.13
2019-01-14T03:43:49.498Z,3.00
2019-01-14T03:46:16.675Z,2.93
2019-01-14T03:48:43.868Z,3.37
2019-01-14T03:51:11.030Z,2.40
2019-01-14T03:53:38.245Z,2.77
2019-01-14T03:56:05.414Z,3.40
2019-01-14T03:58:32.598Z,2.53
2019-01-14T04:00:59.842Z,2.80
2019-01-14T04:03:27.021Z,3.57
2019-01-14T04:05:54.218Z,2.80
2019-01-14T04:08:21.422Z,3.17
2019-01-14T04:10:48.606Z,3.73
2019-01-14T04:13:15.795Z,4.00
2019-01-14T04:15:42.987Z,3.53
2019-01-14T04:18:10.173Z,2.13
2019-01-14T04:20:37.362Z,3.73
2019-01-14T04:23:04.554Z,2.37
2019-01-14T04:25:31.812Z,2.73
2019-01-14T04:27:59.000Z,4.50
2019-01-14T04:30:26.172Z,4.00
2019-01-14T04:32:53.382Z,3.73
2019-01-14T04:35:20.557Z,2.97
2019-01-14T04:37:47.741Z,3.30
2019-01-14T04:40:15.005Z,3.03
2019-01-14T04:42:42.194Z,4.03
2019-01-14T04:45:11.058Z,2.37
2019-01-14T04:47:38.311Z,2.43
2019-01-14T04:50:06.962Z,2.23
2019-01-14T04:52:34.158Z,2.30
2019-01-14T04:55:01.340Z,2.57
2019-01-14T04:57:28.527Z,2.00
2019-01-14T04:59:55.703Z,1.90
2019-01-14T05:02:22.907Z,2.20
2019-01-14T05:04:50.072Z,1.53
2019-01-14T05:07:17.254Z,2.13
2019-01-14T05:09:44.469Z,3.87
2019-01-14T05:12:11.634Z,2.20
2019-01-14T05:14:38.832Z,3.07
2019-01-14T05:17:06.022Z,3.03
2019-01-14T05:19:34.102Z,2.03
2019-01-14T05:22:01.811Z,2.13
2019-01-14T05:24:28.980Z,2.30
2019-01-14T05:26:56.160Z,2.23
2019-01-14T05:29:23.337Z,1.80
2019-01-14T05:31:50.523Z,1.80
2019-01-14T05:34:17.686Z,1.97
2019-01-14T05:36:44.883Z,2.30
2019-01-14T05:39:12.056Z,2.40
2019-01-14T05:41:39.421Z,4.10
2019-01-14T05:44:06.824Z,2.07
2019-01-14T05:46:35.274Z,3.67
2019-01-14T05:49:02.542Z,1.60
2019-01-14T05:51:29.723Z,2.00
2019-01-14T05:53:56.915Z,2.33
2019-01-14T05:56:24.094Z,2.40
2019-01-14T05:58:51.286Z,1.87
2019-01-14T06:01:18.473Z,3.00
2019-01-14T06:03:45.633Z,2.90
2019-01-14T06:06:12.838Z,2.43
2019-01-14T06:08:40.009Z,2.03
2019-01-14T06:11:07.229Z,2.53
2019-01-14T06:13:34.409Z,1.80
2019-01-14T06:16:01.605Z,2.23
2019-01-14T06:18:28.800Z,1.87
2019-01-14T06:20:56.008Z,1.97
2019-01-14T06:23:23.178Z,2.60
2019-01-14T06:25:50.349Z,2.10
2019-01-14T06:28:17.533Z,2.17
2019-01-14T06:30:44.714Z,2.10
2019-01-14T06:33:11.906Z,1.97
2019-01-14T06:35:39.104Z,2.53
2019-01-14T06:38:06.287Z,1.77
2019-01-14T06:40:33.485Z,2.33
2019-01-14T06:43:00.670Z,2.23
2019-01-14T06:45:27.870Z,1.80
2019-01-14T06:47:55.048Z,2.30
2019-01-14T06:50:22.241Z,2.03
2019-01-14T06:52:49.434Z,1.90
2019-01-14T06:55:18.230Z,1.37
2019-01-14T06:57:45.432Z,1.63
2019-01-14T07:00:20.085Z,1.47
2019-01-14T07:02:47.256Z,2.07
2019-01-14T07:05:15.397Z,1.03
2019-01-14T07:07:42.592Z,1.20
2019-01-14T07:10:14.472Z,1.70
2019-01-14T07:12:41.672Z,1.10
2019-01-14T07:15:08.834Z,1.20
2019-01-14T07:17:36.021Z,1.60
2019-01-14T07:20:05.062Z,1.60
2019-01-14T07:22:32.246Z,1.67
2019-01-14T07:24:59.435Z,2.13
2019-01-14T07:27:26.618Z,1.80
2019-01-14T07:29:53.793Z,1.80
2019-01-14T07:32:20.982Z,2.83
2019-01-14T07:34:48.223Z,2.30
2019-01-14T07:37:15.438Z,1.63
2019-01-14T07:39:42.691Z,1.87
2019-01-14T07:42:09.862Z,1.80
2019-01-14T07:44:37.068Z,2.63
2019-01-14T07:47:04.256Z,1.83
2019-01-14T07:49:31.422Z,3.23
2019-01-14T07:51:58.625Z,1.53
2019-01-14T07:54:27.043Z,2.63
2019-01-14T07:56:55.362Z,2.00
2019-01-14T07:59:22.534Z,1.97
2019-01-14T08:01:49.725Z,1.87
2019-01-14T08:04:16.911Z,1.67
2019-01-14T08:06:44.084Z,1.23
2019-01-14T08:09:11.270Z,1.80
2019-01-14T08:11:38.444Z,2.33
2019-01-14T08:14:05.633Z,1.70
2019-01-14T08:16:32.810Z,2.23
2019-01-14T08:18:59.982Z,1.83
2019-01-14T08:21:27.185Z,2.70
2019-01-14T08:23:54.374Z,1.70
2019-01-14T08:26:21.530Z,2.10
2019-01-14T08:28:48.711Z,1.90
2019-01-14T08:31:15.888Z,4.13
2019-01-14T08:33:43.094Z,1.67
2019-01-14T08:36:10.269Z,2.70
2019-01-14T08:38:37.460Z,2.00
2019-01-14T08:41:04.630Z,2.20
2019-01-14T08:43:33.487Z,2.07
2019-01-14T08:46:01.249Z,2.17
2019-01-14T08:48:28.701Z,1.70
2019-01-14T08:50:56.007Z,3.70
2019-01-14T08:53:23.195Z,1.83
2019-01-14T08:55:50.393Z,2.00
2019-01-14T08:58:17.569Z,1.97
2019-01-14T09:00:44.777Z,1.87
2019-01-14T09:03:11.949Z,2.43
2019-01-14T09:05:39.147Z,3.53
2019-01-14T09:08:06.323Z,2.83
2019-01-14T09:10:33.529Z,1.83
2019-01-14T09:13:00.714Z,2.23
2019-01-14T09:15:27.884Z,2.23
2019-01-14T09:18:02.379Z,2.37
2019-01-14T09:20:23.984Z,1.80
2019-01-14T09:22:51.180Z,1.73
2019-01-14T09:25:18.382Z,3.97
2019-01-14T09:27:45.577Z,3.67
2019-01-14T09:30:14.388Z,1.83
2019-01-14T09:32:41.583Z,1.47
2019-01-14T09:35:08.774Z,2.37
2019-01-14T09:37:36.064Z,1.60
2019-01-14T09:40:04.891Z,1.60
2019-01-14T09:42:32.058Z,1.70
2019-01-14T09:44:59.251Z,1.63
2019-01-14T09:47:26.956Z,3.17
2019-01-14T09:49:54.232Z,2.37
2019-01-14T09:52:21.464Z,1.93
2019-01-14T09:54:48.699Z,2.00
2019-01-14T09:57:15.899Z,2.03
2019-01-14T09:59:43.062Z,2.73
2019-01-14T10:02:10.242Z,2.47
2019-01-14T10:04:37.430Z,1.87
2019-01-14T10:07:04.617Z,2.20
2019-01-14T10:09:31.792Z,2.13
2019-01-14T10:11:58.982Z,3.80
2019-01-14T10:14:26.140Z,1.80
2019-01-14T10:16:54.651Z,1.87
2019-01-14T10:19:21.849Z,1.93
2019-01-14T10:21:49.030Z,1.97
2019-01-14T10:24:16.221Z,2.30
2019-01-14T10:26:43.397Z,2.40
2019-01-14T10:29:10.562Z,2.47
2019-01-14T10:31:37.739Z,2.47
2019-01-14T10:34:04.911Z,1.77
2019-01-14T10:36:32.083Z,1.40
2019-01-14T10:38:59.286Z,1.60
2019-01-14T10:41:26.455Z,2.17
2019-01-14T10:43:53.633Z,1.93
2019-01-14T10:46:20.823Z,1.70
2019-01-14T10:48:47.998Z,1.40
2019-01-14T10:51:15.193Z,1.33
2019-01-14T10:53:42.396Z,1.83
2019-01-14T10:56:09.596Z,2.03
2019-01-14T10:58:36.784Z,1.83
2019-01-14T11:01:04.031Z,1.47
2019-01-14T11:03:31.218Z,3.20
2019-01-14T11:05:58.409Z,2.07
2019-01-14T11:08:25.580Z,1.50
2019-01-14T11:10:52.794Z,2.00
2019-01-14T11:13:19.962Z,1.60
2019-01-14T11:15:47.166Z,2.30
2019-01-14T11:18:14.332Z,1.60
2019-01-14T11:20:41.533Z,1.43
2019-01-14T11:23:08.721Z,1.43
2019-01-14T11:25:35.897Z,1.60
2019-01-14T11:28:03.078Z,1.60
2019-01-14T11:30:30.248Z,1.00
2019-01-14T11:32:57.434Z,1.90
2019-01-14T11:35:24.697Z,1.50
2019-01-14T11:37:51.887Z,1.30
2019-01-14T11:40:20.773Z,1.23
2019-01-14T11:42:48.422Z,1.50
2019-01-14T11:45:15.600Z,1.67
2019-01-14T11:47:42.776Z,1.60
2019-01-14T11:50:11.505Z,1.57
2019-01-14T11:52:38.701Z,1.70
2019-01-14T11:55:07.504Z,1.63
2019-01-14T11:57:34.666Z,1.53
2019-01-14T12:00:01.850Z,1.20
2019-01-14T12:02:29.033Z,1.17
2019-01-14T12:04:56.226Z,1.23
2019-01-14T12:07:23.402Z,1.20
2019-01-14T12:09:50.578Z,1.07
2019-01-14T12:12:17.763Z,1.17
2019-01-14T12:14:44.954Z,1.33
2019-01-14T12:17:12.110Z,1.00
2019-01-14T12:19:39.302Z,1.50
2019-01-14T12:22:06.485Z,1.87
2019-01-14T12:24:33.654Z,2.57
2019-01-14T12:27:00.850Z,1.20
2019-01-14T12:29:28.106Z,1.37
2019-01-14T12:31:55.284Z,1.50
2019-01-14T12:34:22.476Z,1.30
2019-01-14T12:36:49.647Z,0.90
2019-01-14T12:39:19.700Z,0.93
2019-01-14T12:41:51.072Z,1.50
2019-01-14T12:44:14.620Z,0.97
2019-01-14T12:46:42.112Z,1.10
2019-01-14T12:49:09.361Z,1.00
2019-01-14T12:51:36.544Z,1.03
2019-01-14T12:54:03.721Z,1.33
2019-01-14T12:56:30.930Z,1.10
2019-01-14T12:58:58.153Z,2.07
2019-01-14T13:01:25.382Z,1.20
2019-01-14T13:03:52.670Z,1.47
2019-01-14T13:06:19.940Z,1.20
2019-01-14T13:08:47.118Z,0.97
2019-01-14T13:11:14.282Z,0.83
2019-01-14T13:13:41.455Z,0.70
2019-01-14T13:16:08.617Z,1.00
2019-01-14T13:18:35.832Z,1.53
2019-01-14T13:21:03.009Z,0.90
2019-01-14T13:23:32.328Z,0.80
2019-01-14T13:25:59.271Z,1.57
2019-01-14T13:28:26.466Z,0.80
2019-01-14T13:30:53.630Z,0.80
2019-01-14T13:33:20.806Z,1.13
2019-01-14T13:35:47.983Z,0.70
2019-01-14T13:38:15.150Z,0.40
2019-01-14T13:40:42.328Z,1.00
2019-01-14T13:43:09.519Z,0.90
2019-01-14T13:45:36.696Z,1.10
2019-01-14T13:48:04.553Z,1.10
2019-01-14T13:50:31.714Z,1.10
2019-01-14T13:52:58.911Z,0.77
2019-01-14T13:55:26.076Z,0.70
2019-01-14T13:57:53.266Z,1.83
2019-01-14T14:00:22.067Z,1.00
2019-01-14T14:02:49.243Z,0.90
2019-01-14T14:05:16.438Z,1.20
2019-01-14T14:07:43.620Z,1.50
2019-01-14T14:10:12.437Z,1.80
2019-01-14T14:12:39.624Z,2.23
2019-01-14T14:15:07.961Z,1.47
2019-01-14T14:17:35.153Z,1.17
2019-01-14T14:20:03.667Z,1.10
2019-01-14T14:22:30.927Z,1.20
2019-01-14T14:24:58.123Z,1.23
2019-01-14T14:27:25.302Z,1.10
2019-01-14T14:29:52.473Z,1.13
2019-01-14T14:32:19.656Z,1.33
2019-01-14T14:34:46.921Z,1.40
2019-01-14T14:37:14.095Z,1.63
2019-01-14T14:39:48.384Z,1.53
2019-01-14T14:42:10.175Z,1.20
2019-01-14T14:44:37.386Z,1.20
2019-01-14T14:47:04.560Z,1.30
2019-01-14T14:49:31.726Z,1.23
2019-01-14T14:51:58.917Z,1.53
2019-01-14T14:54:26.109Z,1.10
2019-01-14T14:56:53.284Z,1.47
2019-01-14T14:59:20.530Z,1.70
2019-01-14T15:01:47.780Z,1.77
2019-01-14T15:04:14.972Z,1.77
2019-01-14T15:06:42.163Z,1.40
2019-01-14T15:09:09.356Z,1.27
2019-01-14T15:11:36.594Z,1.30
2019-01-14T15:14:03.838Z,1.50
2019-01-14T15:16:31.034Z,1.87
2019-01-14T15:18:58.250Z,1.70
2019-01-14T15:21:25.465Z,1.00
2019-01-14T15:23:52.651Z,1.43
2019-01-14T15:26:19.831Z,1.20
2019-01-14T15:28:47.033Z,1.40
2019-01-14T15:31:14.222Z,1.40
2019-01-14T15:33:41.410Z,1.33
2019-01-14T15:36:08.608Z,1.80
2019-01-14T15:38:35.927Z,1.20
2019-01-14T15:41:03.480Z,1.20
2019-01-14T15:43:30.677Z,1.40
2019-01-14T15:45:57.842Z,1.93
2019-01-14T15:48:25.789Z,1.73
2019-01-14T15:50:53.088Z,1.23
2019-01-14T15:53:20.296Z,1.50
2019-01-14T15:55:47.514Z,1.23
2019-01-14T15:58:14.693Z,1.20
2019-01-14T16:00:41.911Z,1.40
2019-01-14T16:03:09.179Z,1.40
2019-01-14T16:05:36.431Z,1.30
2019-01-14T16:08:03.619Z,1.73
2019-01-14T16:10:30.810Z,1.40
2019-01-14T16:12:57.978Z,1.40
2019-01-14T16:15:25.155Z,1.37
2019-01-14T16:17:52.349Z,1.40
2019-01-14T16:20:21.086Z,1.40
2019-01-14T16:22:48.271Z,1.57
2019-01-14T16:25:15.529Z,1.63
2019-01-14T16:27:42.694Z,1.33
2019-01-14T16:30:11.742Z,1.20
2019-01-14T16:32:38.942Z,1.00
2019-01-14T16:35:06.585Z,1.03
2019-01-14T16:37:33.790Z,1.47
2019-01-14T16:40:00.967Z,1.17
2019-01-14T16:42:28.191Z,1.00
2019-01-14T16:44:55.358Z,1.40
2019-01-14T16:47:22.533Z,1.43
2019-01-14T16:49:49.717Z,1.07
2019-01-14T16:52:16.891Z,2.00
2019-01-14T16:54:44.083Z,1.53
2019-01-14T16:57:11.256Z,1.93
2019-01-14T16:59:38.453Z,2.13
2019-01-14T17:02:05.630Z,1.17
2019-01-14T17:04:32.819Z,1.30
2019-01-14T17:07:00.013Z,2.30
2019-01-14T17:09:27.191Z,1.57
2019-01-14T17:11:54.456Z,1.40
2019-01-14T17:14:21.621Z,1.37
2019-01-14T17:16:48.810Z,1.87
2019-01-14T17:19:15.992Z,1.17
2019-01-14T17:21:43.174Z,1.50
2019-01-14T17:24:10.412Z,1.00
2019-01-14T17:26:37.590Z,1.40
2019-01-14T17:29:04.780Z,2.50
2019-01-14T17:31:31.952Z,2.07
2019-01-14T17:33:59.143Z,1.10
2019-01-14T17:36:26.321Z,1.30
2019-01-14T17:38:53.497Z,2.03
2019-01-14T17:41:20.689Z,1.40
2019-01-14T17:43:47.863Z,1.37
2019-01-14T17:46:15.057Z,2.03
2019-01-14T17:48:42.232Z,2.17
2019-01-14T17:51:09.437Z,1.63
2019-01-14T17:53:36.608Z,2.13
2019-01-14T17:56:03.885Z,1.37
2019-01-14T17:58:32.194Z,1.33
2019-01-14T18:00:59.382Z,1.53
2019-01-14T18:03:26.612Z,2.83
2019-01-14T18:05:53.805Z,1.93
2019-01-14T18:08:21.003Z,2.07
2019-01-14T18:10:48.249Z,1.77
2019-01-14T18:13:15.422Z,1.73
2019-01-14T18:15:42.599Z,2.23
2019-01-14T18:18:09.777Z,2.00
2019-01-14T18:20:36.966Z,1.53
2019-01-14T18:23:04.150Z,1.67
2019-01-14T18:25:31.397Z,1.77
2019-01-14T18:27:58.598Z,1.50
2019-01-14T18:30:25.759Z,1.33
2019-01-14T18:32:52.940Z,1.67
2019-01-14T18:35:20.138Z,1.00
2019-01-14T18:37:47.383Z,1.50
2019-01-14T18:40:15.627Z,1.80
2019-01-14T18:42:42.814Z,1.70
2019-01-14T18:45:11.363Z,1.33
2019-01-14T18:47:38.539Z,1.70
2019-01-14T18:50:07.339Z,1.73
2019-01-14T18:52:34.540Z,2.37
2019-01-14T18:55:01.753Z,1.90
2019-01-14T18:57:28.944Z,1.60
2019-01-14T18:59:56.140Z,1.50
2019-01-14T19:02:23.321Z,2.23
2019-01-14T19:04:50.517Z,2.10
2019-01-14T19:07:17.702Z,1.70
2019-01-14T19:09:44.898Z,1.60
2019-01-14T19:12:12.082Z,1.90
2019-01-14T19:14:39.325Z,2.10
2019-01-14T19:17:06.528Z,1.87
2019-01-14T19:19:33.693Z,3.77
2019-01-14T19:22:00.898Z,1.63
2019-01-14T19:24:28.144Z,2.10
2019-01-14T19:26:55.355Z,2.77
2019-01-14T19:29:22.617Z,3.27
2019-01-14T19:31:49.814Z,2.00
2019-01-14T19:34:17.001Z,2.33
2019-01-14T19:36:44.173Z,2.37
2019-01-14T19:39:11.443Z,1.87
2019-01-14T19:41:38.626Z,2.70
2019-01-14T19:44:05.864Z,2.37
2019-01-14T19:46:33.047Z,2.93
2019-01-14T19:49:00.229Z,2.13
2019-01-14T19:51:27.454Z,2.30
2019-01-14T19:53:54.647Z,3.17
2019-01-14T19:56:21.867Z,2.30
2019-01-14T19:58:49.080Z,2.43
2019-01-14T20:01:16.382Z,1.90
2019-01-14T20:03:43.590Z,1.90
2019-01-14T20:06:10.852Z,2.43
2019-01-14T20:08:38.305Z,2.37
2019-01-14T20:11:09.315Z,1.87
2019-01-14T20:13:34.406Z,2.17
2019-01-14T20:16:01.642Z,2.47
2019-01-14T20:18:28.868Z,1.90
2019-01-14T20:20:56.049Z,2.13
2019-01-14T20:23:23.251Z,3.17
2019-01-14T20:25:51.208Z,3.93
2019-01-14T20:28:18.455Z,2.43
2019-01-14T20:30:45.714Z,2.30
2019-01-14T20:33:13.075Z,2.07
2019-01-14T20:35:40.304Z,2.00
2019-01-14T20:38:07.561Z,3.23
2019-01-14T20:40:34.780Z,2.67
2019-01-14T20:43:01.962Z,4.73
2019-01-14T20:45:29.147Z,2.70
2019-01-14T20:47:56.409Z,2.07
2019-01-14T20:50:23.585Z,3.07
2019-01-14T20:52:50.797Z,2.40
2019-01-14T20:55:17.982Z,2.67
2019-01-14T20:57:45.183Z,2.80
2019-01-14T21:00:16.322Z,2.23
2019-01-14T21:02:43.591Z,2.67
2019-01-14T21:05:10.857Z,2.30
2019-01-14T21:07:38.031Z,2.77
2019-01-14T21:10:06.852Z,1.90
2019-01-14T21:12:34.018Z,2.90
2019-01-14T21:15:01.197Z,2.43
2019-01-14T21:17:28.437Z,1.87
2019-01-14T21:19:55.643Z,2.90
2019-01-14T21:22:22.867Z,2.40
2019-01-14T21:24:50.103Z,2.87
2019-01-14T21:27:17.298Z,3.43
2019-01-14T21:29:44.492Z,2.90
2019-01-14T21:32:11.734Z,2.23
2019-01-14T21:34:38.936Z,2.07
2019-01-14T21:37:06.116Z,2.80
2019-01-14T21:39:33.838Z,3.07
2019-01-14T21:42:01.064Z,2.43
2019-01-14T21:44:28.241Z,2.60
2019-01-14T21:46:55.442Z,2.93
2019-01-14T21:49:22.679Z,2.00
2019-01-14T21:51:49.911Z,2.17
2019-01-14T21:54:17.192Z,4.83
2019-01-14T21:56:44.452Z,4.50
2019-01-14T21:59:11.622Z,3.23
2019-01-14T22:01:38.839Z,2.90
2019-01-14T22:04:06.109Z,2.23
2019-01-14T22:06:33.343Z,2.33
2019-01-14T22:09:00.593Z,2.13
2019-01-14T22:11:27.829Z,2.20
2019-01-14T22:13:55.012Z,2.73
2019-01-14T22:16:22.197Z,2.00
2019-01-14T22:18:49.403Z,4.43
2019-01-14T22:21:16.585Z,1.90
2019-01-14T22:23:43.774Z,2.63
2019-01-14T22:26:10.947Z,2.50
2019-01-14T22:28:38.151Z,3.10
2019-01-14T22:31:05.313Z,2.13
2019-01-14T22:33:32.518Z,2.27
2019-01-14T22:35:59.699Z,2.07
2019-01-14T22:38:26.876Z,2.50
2019-01-14T22:40:54.128Z,2.17
2019-01-14T22:43:21.299Z,3.30
2019-01-14T22:45:48.497Z,2.20
2019-01-14T22:48:15.706Z,2.63
2019-01-14T22:50:42.970Z,2.63
2019-01-14T22:53:10.187Z,2.30
2019-01-14T22:55:37.356Z,2.30
2019-01-14T22:58:04.556Z,2.57
2019-01-14T23:00:44.059Z,3.20
2019-01-14T23:03:11.320Z,1.97
2019-01-14T23:05:38.571Z,2.27
2019-01-14T23:08:05.834Z,1.97
2019-01-14T23:10:33.010Z,2.20
2019-01-14T23:13:00.193Z,2.80
2019-01-14T23:15:27.455Z,2.37
2019-01-14T23:17:54.637Z,2.57
2019-01-14T23:20:21.825Z,2.10
2019-01-14T23:22:49.006Z,2.47
2019-01-14T23:25:16.179Z,1.87
2019-01-14T23:27:43.370Z,2.40
2019-01-14T23:30:10.913Z,2.80
2019-01-14T23:32:38.114Z,2.10
2019-01-14T23:35:06.486Z,2.27
2019-01-14T23:37:33.745Z,2.07
2019-01-14T23:40:00.935Z,1.90
2019-01-14T23:42:28.142Z,2.23
2019-01-14T23:44:55.381Z,2.83
2019-01-14T23:47:22.579Z,2.07
2019-01-14T23:49:49.849Z,3.33
2019-01-14T23:52:17.041Z,2.83
2019-01-14T23:54:44.211Z,2.87
2019-01-14T23:57:11.378Z,2.30
2019-01-14T23:59:38.585Z,2.07
